createdAt,value
2023-01-20T00:02:28.678Z,0.42
2023-01-20T00:06:30.743Z,0.39
2023-01-20T00:10:32.452Z,0.34
2023-01-20T00:14:34.493Z,0.38
2023-01-20T00:18:37.892Z,0.41
2023-01-20T00:22:42.360Z,0.38
2023-01-20T00:26:44.504Z,0.29
2023-01-20T00:30:46.537Z,0.28
2023-01-20T00:34:48.205Z,0.30
2023-01-20T00:38:50.969Z,0.37
2023-01-20T00:42:52.875Z,0.44
2023-01-20T00:46:55.080Z,0.39
2023-01-20T00:50:57.170Z,0.37
2023-01-20T00:54:58.798Z,0.41
2023-01-20T00:59:00.674Z,0.48
2023-01-20T01:03:03.271Z,0.49
2023-01-20T01:07:05.032Z,0.51
2023-01-20T01:11:07.479Z,0.47
2023-01-20T01:15:10.037Z,0.48
2023-01-20T01:19:12.035Z,0.44
2023-01-20T01:23:14.045Z,0.50
2023-01-20T01:27:15.894Z,0.44
2023-01-20T01:31:24.658Z,0.42
2023-01-20T01:35:26.307Z,0.45
2023-01-20T01:39:28.600Z,0.50
2023-01-20T01:43:34.058Z,0.50
2023-01-20T01:47:38.783Z,0.47
2023-01-20T01:52:06.249Z,0.55
2023-01-20T01:56:10.210Z,0.50
2023-01-20T02:00:12.646Z,0.56
2023-01-20T02:04:21.814Z,0.63
2023-01-20T02:08:25.362Z,0.67
2023-01-20T02:12:28.217Z,0.62
2023-01-20T02:16:56.136Z,0.65
2023-01-20T02:21:34.258Z,0.60
2023-01-20T02:25:54.224Z,0.68
2023-01-20T02:30:23.621Z,0.68
2023-01-20T02:34:44.100Z,0.64
2023-01-20T02:39:04.420Z,0.75
2023-01-20T02:43:29.961Z,0.74
2023-01-20T02:47:51.523Z,0.77
2023-01-20T02:52:16.814Z,0.82
2023-01-20T02:56:24.291Z,0.68
2023-01-20T03:00:32.606Z,0.71
2023-01-20T03:04:40.675Z,0.75
2023-01-20T03:08:43.048Z,0.80
2023-01-20T03:12:53.287Z,0.80
2023-01-20T03:16:55.631Z,0.76
2023-01-20T03:20:59.606Z,0.77
2023-01-20T03:25:03.363Z,0.70
2023-01-20T03:29:07.240Z,0.70
2023-01-20T03:33:10.162Z,0.65
2023-01-20T03:37:13.015Z,0.68
2023-01-20T03:41:36.333Z,0.64
2023-01-20T03:45:51.454Z,0.68
2023-01-20T03:49:59.461Z,0.72
2023-01-20T03:54:07.253Z,0.71
2023-01-20T03:58:13.976Z,0.76
2023-01-20T04:02:16.005Z,0.73
2023-01-20T04:06:21.610Z,0.77
2023-01-20T04:10:27.330Z,0.74
2023-01-20T04:14:29.477Z,0.68
2023-01-20T04:18:31.806Z,0.66
2023-01-20T04:22:40.715Z,0.85
2023-01-20T04:26:42.865Z,0.90
2023-01-20T04:30:45.037Z,0.84
2023-01-20T04:34:47.032Z,0.96
2023-01-20T04:38:48.969Z,0.86
2023-01-20T04:42:51.072Z,0.85
2023-01-20T04:46:57.841Z,0.82
2023-01-20T04:51:04.231Z,0.95
2023-01-20T04:55:06.659Z,0.87
2023-01-20T04:59:08.589Z,1.00
2023-01-20T05:03:10.598Z,0.99
2023-01-20T05:07:12.808Z,1.03
2023-01-20T05:11:14.417Z,0.96
2023-01-20T05:15:16.619Z,1.06
2023-01-20T05:19:18.818Z,0.97
2023-01-20T05:23:20.804Z,1.06
2023-01-20T05:27:22.773Z,1.01
2023-01-20T05:31:25.070Z,0.99
2023-01-20T05:35:27.041Z,1.01
2023-01-20T05:39:29.078Z,1.10
2023-01-20T05:43:31.242Z,1.09
2023-01-20T05:47:33.225Z,1.12
2023-01-20T05:51:35.193Z,1.04
2023-01-20T05:55:37.152Z,0.99
2023-01-20T05:59:39.101Z,1.14
2023-01-20T06:03:41.205Z,1.14
2023-01-20T06:07:43.527Z,1.19
2023-01-20T06:11:45.516Z,1.18
2023-01-20T06:15:55.214Z,1.03
2023-01-20T06:19:57.406Z,1.18
2023-01-20T06:23:59.428Z,1.18
2023-01-20T06:28:01.435Z,1.20
2023-01-20T06:32:04.023Z,1.24
2023-01-20T06:36:07.313Z,1.20
2023-01-20T06:40:09.921Z,1.21
2023-01-20T06:44:11.843Z,1.17
2023-01-20T06:48:13.836Z,1.08
2023-01-20T06:52:15.846Z,1.17
2023-01-20T06:56:17.834Z,1.22
2023-01-20T07:00:20.411Z,1.07
2023-01-20T07:04:22.409Z,1.17
2023-01-20T07:08:24.569Z,1.26
2023-01-20T07:12:26.265Z,1.18
2023-01-20T07:16:28.633Z,1.32
2023-01-20T07:20:30.660Z,1.34
2023-01-20T07:24:32.582Z,1.35
2023-01-20T07:28:35.426Z,1.46
2023-01-20T07:32:37.470Z,1.42
2023-01-20T07:36:39.575Z,1.54
2023-01-20T07:40:41.560Z,1.53
2023-01-20T07:44:43.842Z,1.59
2023-01-20T07:48:46.207Z,1.65
2023-01-20T07:52:48.165Z,1.69
2023-01-20T07:56:50.613Z,1.64
2023-01-20T08:00:52.239Z,1.63
2023-01-20T08:04:54.189Z,1.53
2023-01-20T08:09:00.664Z,1.60
2023-01-20T08:13:03.002Z,1.60
2023-01-20T08:17:05.125Z,1.55
2023-01-20T08:21:15.827Z,1.66
2023-01-20T08:25:17.797Z,1.67
2023-01-20T08:29:19.847Z,1.82
2023-01-20T08:33:21.869Z,1.83
2023-01-20T08:37:23.772Z,1.88
2023-01-20T08:41:29.409Z,1.95
2023-01-20T08:45:31.644Z,1.73
2023-01-20T08:49:33.572Z,1.90
2023-01-20T08:53:35.928Z,1.76
2023-01-20T08:57:37.705Z,1.85
2023-01-20T09:01:39.802Z,1.92
2023-01-20T09:05:41.801Z,1.99
2023-01-20T09:09:43.709Z,1.96
2023-01-20T09:13:46.419Z,1.95
2023-01-20T09:17:48.424Z,2.04
2023-01-20T09:21:50.352Z,1.94
2023-01-20T09:25:52.373Z,2.04
2023-01-20T09:29:54.339Z,1.84
2023-01-20T09:33:56.440Z,1.92
2023-01-20T09:38:17.189Z,2.02
2023-01-20T09:42:43.802Z,1.98
2023-01-20T09:47:17.286Z,2.17
2023-01-20T09:51:52.916Z,2.13
2023-01-20T09:56:14.037Z,2.27
2023-01-20T10:00:24.777Z,2.30
2023-01-20T10:04:43.736Z,2.14
2023-01-20T10:09:05.361Z,2.04
2023-01-20T10:13:19.527Z,1.91
2023-01-20T10:17:34.744Z,1.96
2023-01-20T10:21:52.631Z,1.96
2023-01-20T10:26:22.081Z,1.93
2023-01-20T10:30:30.240Z,1.92
2023-01-20T10:34:45.328Z,2.08
2023-01-20T10:39:04.122Z,2.07
2023-01-20T10:43:16.522Z,2.13
2023-01-20T10:47:24.809Z,2.27
2023-01-20T10:51:39.346Z,2.36
2023-01-20T10:55:50.310Z,2.50
2023-01-20T11:00:03.030Z,2.24
2023-01-20T11:04:05.367Z,2.23
2023-01-20T11:08:17.094Z,2.22
2023-01-20T11:12:24.323Z,2.29
2023-01-20T11:16:29.015Z,2.18
2023-01-20T11:20:31.373Z,2.38
2023-01-20T11:24:43.086Z,2.19
2023-01-20T11:28:59.024Z,2.22
2023-01-20T11:33:18.431Z,2.19
2023-01-20T11:37:25.493Z,2.03
2023-01-20T11:41:29.260Z,2.06
2023-01-20T11:45:34.713Z,2.11
2023-01-20T11:49:37.209Z,2.15
2023-01-20T11:53:39.320Z,2.18
2023-01-20T11:57:50.495Z,2.07
2023-01-20T12:01:57.974Z,2.13
2023-01-20T12:06:10.018Z,1.98
2023-01-20T12:10:17.695Z,1.99
2023-01-20T12:14:27.627Z,1.96
2023-01-20T12:18:37.658Z,1.81
2023-01-20T12:22:58.772Z,1.88
2023-01-20T12:27:00.811Z,1.90
2023-01-20T12:31:09.708Z,1.72
2023-01-20T12:35:15.147Z,1.81
2023-01-20T12:39:44.270Z,1.81
2023-01-20T12:43:57.920Z,1.82
2023-01-20T12:48:18.709Z,1.79
2023-01-20T12:52:34.308Z,1.84
2023-01-20T12:56:58.270Z,1.79
2023-01-20T13:01:10.818Z,1.75
2023-01-20T13:05:50.297Z,1.83
2023-01-20T13:10:02.846Z,1.76
2023-01-20T13:14:23.223Z,1.69
2023-01-20T13:18:36.974Z,1.68
2023-01-20T13:22:39.087Z,1.55
2023-01-20T13:26:41.777Z,1.68
2023-01-20T13:30:51.566Z,1.69
2023-01-20T13:34:54.197Z,1.75
2023-01-20T13:39:30.176Z,1.64
2023-01-20T13:43:32.115Z,1.68
2023-01-20T13:47:58.701Z,1.55
2023-01-20T13:52:00.716Z,1.60
2023-01-20T13:56:02.849Z,1.55
2023-01-20T14:00:12.280Z,1.60
2023-01-20T14:04:17.037Z,1.67
2023-01-20T14:08:20.146Z,1.54
2023-01-20T14:12:22.039Z,1.58
2023-01-20T14:16:29.281Z,1.70
2023-01-20T14:20:31.756Z,1.39
2023-01-20T14:24:36.586Z,1.46
2023-01-20T14:29:00.158Z,1.47
2023-01-20T14:52:02.373Z,1.26
2023-01-20T14:56:07.665Z,1.24
2023-01-20T15:00:09.994Z,1.21
2023-01-20T15:04:12.868Z,1.29
2023-01-20T15:08:26.100Z,1.22
2023-01-20T15:12:33.751Z,1.24
2023-01-20T15:16:35.703Z,1.28
2023-01-20T15:20:41.143Z,1.33
2023-01-20T15:24:47.084Z,1.21
2023-01-20T15:28:49.335Z,1.18
2023-01-20T15:32:52.186Z,1.35
2023-01-20T15:36:55.869Z,1.16
2023-01-20T15:40:58.066Z,1.13
2023-01-20T15:45:00.098Z,1.21
2023-01-20T15:49:02.293Z,1.23
2023-01-20T15:53:06.366Z,1.21
2023-01-20T15:57:13.190Z,1.13
2023-01-20T16:01:18.164Z,1.03
2023-01-20T16:05:20.382Z,1.08
2023-01-20T16:09:27.435Z,0.99
2023-01-20T16:13:29.373Z,0.99
2023-01-20T16:17:34.365Z,0.99
2023-01-20T16:21:36.763Z,1.05
2023-01-20T16:25:39.388Z,0.87
2023-01-20T16:29:41.360Z,0.91
2023-01-20T16:33:43.459Z,0.81
2023-01-20T16:37:47.594Z,0.83
2023-01-20T16:41:49.826Z,0.82
2023-01-20T16:45:54.639Z,0.79
2023-01-20T16:49:56.327Z,0.80
2023-01-20T16:53:59.198Z,0.71
2023-01-20T16:58:01.257Z,0.80
2023-01-20T17:02:03.207Z,0.76
2023-01-20T17:06:13.887Z,0.74
2023-01-20T17:10:17.701Z,0.71
2023-01-20T17:14:19.833Z,0.71
2023-01-20T17:18:21.949Z,0.76
2023-01-20T17:22:23.641Z,0.76
2023-01-20T17:26:26.004Z,0.86
2023-01-20T17:30:28.162Z,0.74
2023-01-20T17:34:30.349Z,0.71
2023-01-20T17:38:35.773Z,0.75
2023-01-20T17:42:38.141Z,0.82
2023-01-20T17:46:40.128Z,0.88
2023-01-20T17:50:42.177Z,0.79
2023-01-20T17:54:44.172Z,0.84
2023-01-20T17:58:47.332Z,0.83
2023-01-20T18:02:49.027Z,0.91
2023-01-20T18:06:51.146Z,0.93
2023-01-20T18:10:53.185Z,0.82
2023-01-20T18:14:54.857Z,0.86
2023-01-20T18:18:58.885Z,0.85
2023-01-20T18:23:00.794Z,0.81
2023-01-20T18:27:02.769Z,0.70
2023-01-20T18:31:10.631Z,0.87
2023-01-20T18:35:12.694Z,0.86
2023-01-20T18:39:14.730Z,0.85
2023-01-20T18:43:16.791Z,0.87
2023-01-20T18:47:18.818Z,0.88
2023-01-20T18:51:22.473Z,0.95
2023-01-20T18:55:24.468Z,0.94
2023-01-20T18:59:26.465Z,0.89
2023-01-20T19:03:28.847Z,1.00
2023-01-20T19:07:30.463Z,0.93
2023-01-20T19:11:36.102Z,1.03
2023-01-20T19:15:38.103Z,0.99
2023-01-20T19:19:40.117Z,0.98
2023-01-20T19:23:42.983Z,0.99
2023-01-20T19:27:44.766Z,1.04
2023-01-20T19:31:46.782Z,0.98
2023-01-20T19:35:48.833Z,0.89
2023-01-20T19:39:50.782Z,0.90
2023-01-20T19:43:57.911Z,0.89
2023-01-20T19:47:59.880Z,1.04
2023-01-20T19:52:01.841Z,0.89
2023-01-20T19:56:07.002Z,1.04
2023-01-20T20:00:09.613Z,0.97
2023-01-20T20:04:14.490Z,1.01
2023-01-20T20:08:16.168Z,1.00
2023-01-20T20:12:18.168Z,1.03
2023-01-20T20:16:20.351Z,1.09
2023-01-20T20:20:22.047Z,1.02
2023-01-20T20:24:24.295Z,1.01
2023-01-20T20:28:28.169Z,1.02
2023-01-20T20:32:30.043Z,1.12
2023-01-20T20:36:32.807Z,1.01
2023-01-20T20:40:35.015Z,0.94
2023-01-20T20:44:36.904Z,1.00
2023-01-20T20:48:38.886Z,1.01
2023-01-20T20:52:40.809Z,0.98
2023-01-20T20:56:43.600Z,0.92
2023-01-20T21:00:49.687Z,0.99
2023-01-20T21:04:51.862Z,0.82
2023-01-20T21:08:54.475Z,1.01
2023-01-20T21:12:56.692Z,0.92
2023-01-20T21:16:58.787Z,0.96
2023-01-20T21:21:02.378Z,0.87
2023-01-20T21:25:04.987Z,0.94
2023-01-20T21:29:07.612Z,0.93
2023-01-20T21:33:13.267Z,0.96
2023-01-20T21:37:15.421Z,0.92
2023-01-20T21:41:18.848Z,0.97
2023-01-20T21:45:20.976Z,0.96
2023-01-20T21:49:41.881Z,0.84
2023-01-20T21:53:45.881Z,0.89
2023-01-20T21:57:50.273Z,0.84
2023-01-20T22:01:53.889Z,0.83
2023-01-20T22:05:55.735Z,0.86
2023-01-20T22:09:58.356Z,0.82
2023-01-20T22:14:00.559Z,0.79
2023-01-20T22:18:02.238Z,0.85
2023-01-20T22:22:05.011Z,0.82
2023-01-20T22:26:07.201Z,0.87
2023-01-20T22:30:09.897Z,0.84
2023-01-20T22:34:12.584Z,0.79
2023-01-20T22:38:15.265Z,0.88
2023-01-20T22:42:17.356Z,0.78
2023-01-20T22:46:21.368Z,0.82
2023-01-20T22:50:23.740Z,0.82
2023-01-20T22:54:25.631Z,0.85
2023-01-20T22:58:27.584Z,0.78
2023-01-20T23:02:29.328Z,0.85
2023-01-20T23:06:34.014Z,0.87
2023-01-20T23:10:48.036Z,0.81
2023-01-20T23:14:59.038Z,0.82
2023-01-20T23:19:01.112Z,0.76
2023-01-20T23:23:03.177Z,0.83
2023-01-20T23:27:05.137Z,0.76
2023-01-20T23:31:09.927Z,0.71
2023-01-20T23:35:11.976Z,0.69
2023-01-20T23:39:14.244Z,0.67
2023-01-20T23:43:16.411Z,0.81
2023-01-20T23:47:18.605Z,0.78
2023-01-20T23:51:21.016Z,0.74
2023-01-20T23:55:22.832Z,0.78
2023-01-20T23:59:24.824Z,0.79
